• Join FlightAware (Why Join?)
  • Login
  • US Flag 
07:42PM EST


 

Airport Tracker/Info


-or-


 

Live Flight TrackerFlight Track Log ✈ EJA831 ✈ 27-Apr-2013 ✈ KFWA - KLAF

Flight Track Log - Related Links

Times and Time Zones

All times are in EDT time to prevent confusion due to time zone crossing. See the EJA831 flight status page for this flight to view local times or setup timezone preferences in your user account.

Time Position Orientation Groundspeed Altitude Reporting Facility
EDT Latitude Longitude Course Direction KTS MPH feet Rate Location/Type
12:30PM 40.8681 -85.2058 249° West 260 299 9,500  Level Chicago Center
12:31PM 40.8408 -85.3111 251° West 295 339 10,000 242 Climbing Chicago Center
12:32PM 40.8106 -85.4269 251° West 324 373 10,000  Level Chicago Center
12:33PM 40.7842 -85.5364 252° West 324 373 10,000  Level Chicago Center
12:33PM 40.7611 -85.6258 251° West 319 367 10,000  Level Chicago Center
12:34PM 40.8040 -85.6891 244° Southwest  Level FlightAware Approximate
12:34PM 40.7475 -85.6728 249° West 321 369 10,000  Level Chicago Center
12:34PM 40.7308 -85.7394 252° West 320 368 10,000  Level Chicago Center
12:35PM 40.7783 -85.7741 249° West  Level FlightAware Approximate
12:35PM 40.7192 -85.7839 251° West 320 368 10,000  Level Chicago Center
12:35PM 40.7050 -85.8397 252° West 321 369 10,000  Level Chicago Center
12:36PM 40.6894 -85.8969 250° West 324 373 10,000 -197 Level Chicago Center
12:36PM 40.6767 -85.9453 251° West 317 365 9,800 -1,279 Descending Chicago Center
12:37PM 40.6622 -86.0042 252° West 295 339 8,700 -1,770 Descending Chicago Center
12:37PM 40.6506 -86.0453 250° West 280 322 8,000 -1,645 Descending Chicago Center
12:38PM 40.6378 -86.0969 252° West 271 312 7,000 -1,700 Descending Chicago Center
12:38PM 40.6269 -86.1342 249° West 271 312 6,300 -1,645 Descending Chicago Center
12:39PM 40.6133 -86.1919 253° West 271 312 5,300 -1,770 Descending Chicago Center
12:39PM 40.6008 -86.2342 249° West 271 312 4,500 -1,645 Descending Chicago Center
12:40PM 40.5892 -86.2842 253° West 270 311 3,600 -1,400 Descending Chicago Center
12:40PM 40.5769 -86.3231 248° West 267 307 3,100 -590 Descending Chicago Center
12:41PM 40.5608 -86.3908 253° West 266 306 3,000 -90 Descending Chicago Center
12:42PM 40.5483 -86.4281 246° West 270 311 3,000  Level Chicago Center
12:42PM 40.5358 -86.4856 254° West 268 308 3,000  Level Chicago Center
12:43PM 40.5222 -86.5250 246° West 270 311 3,000  Level Chicago Center
12:43PM 40.5103 -86.5789 254° West 270 311 3,000  Level Chicago Center
12:44PM 40.4981 -86.6139 245° Southwest 269 310 3,000  Level Chicago Center
12:44PM 40.4853 -86.6711 254° West 269 310 3,000  Level Chicago Center
12:45PM 40.4736 -86.7106 249° West 269 310 3,000 -97 Level Chicago Center
12:45PM 40.4603 -86.7633 252° West 269 310 2,900 -727 Descending Chicago Center
12:46PM 40.4531 -86.8133 259° West 255 293 2,200 -194 Descending Chicago Center
12:46PM 40.4364 -86.8497 239° Southwest 268 308 2,700  Climbing Chicago Center
12:47PM 40.4525 -86.8869 300° West 212 244 2,200 -349 Descending Chicago Center
12:48PM 40.4433 -86.9575 260° West 188 216 2,200 -446 Level Chicago Center
12:49PM 40.4194 -86.9831 219° Southwest 141 162 1,300 -900 Descending Chicago Center